Time;durP1;ratioP1;P1;durP2;ratioP2;P2;SDS_P1;SDS_P2;PMS_P1;PMS_P2;Temp;Humidity;BMP_temperature;BMP_pressure;BME280_temperature;BME280_humidity;BME280_pressure;Samples;Min_cycle;Max_cycle;Signal;HPM_P1;HPM_P2
2021/03/12 00:01:52;;;;;;;70.20;17.73;;;6.10;99.90;;;;;;5030441;28;20194;-68
2021/03/12 00:04:20;;;;;;;59.27;13.77;;;6.10;99.90;;;;;;5030576;28;20204;-68
2021/03/12 00:06:46;;;;;;;36.30;11.53;;;6.10;99.90;;;;;;5027484;28;20625;-69
2021/03/12 00:09:13;;;;;;;39.83;10.30;;;6.10;99.90;;;;;;5043045;28;20259;-68
2021/03/12 00:11:40;;;;;;;43.43;10.30;;;6.20;99.90;;;;;;5060060;28;20202;-68
2021/03/12 00:14:06;;;;;;;18.17;7.57;;;6.20;99.90;;;;;;5028957;28;20225;-68
2021/03/12 00:16:33;;;;;;;14.20;6.50;;;6.20;99.90;;;;;;5028817;28;20272;-68
2021/03/12 00:18:59;;;;;;;12.30;6.97;;;6.20;99.90;;;;;;5029004;28;20326;-68
2021/03/12 00:21:27;;;;;;;11.93;7.07;;;6.20;99.90;;;;;;5028324;28;20646;-68
2021/03/12 00:23:55;;;;;;;8.90;5.93;;;6.20;99.90;;;;;;5028908;28;20254;-69
2021/03/12 00:26:22;;;;;;;9.00;5.87;;;6.20;99.90;;;;;;5029964;28;20233;-68
2021/03/12 00:28:48;;;;;;;10.80;6.10;;;6.20;99.90;;;;;;5028579;28;20213;-68
2021/03/12 00:31:15;;;;;;;10.73;6.67;;;6.20;99.90;;;;;;5028955;28;20206;-68
2021/03/12 00:33:42;;;;;;;11.23;6.30;;;6.20;99.90;;;;;;5029369;28;20289;-68
2021/03/12 00:36:09;;;;;;;7.67;5.40;;;6.20;99.90;;;;;;5027879;28;20210;-68
2021/03/12 00:38:36;;;;;;;10.50;5.83;;;6.10;99.90;;;;;;5030110;28;20761;-67
2021/03/12 00:41:05;;;;;;;8.90;5.63;;;6.10;99.90;;;;;;5029223;28;20210;-68
2021/03/12 00:43:49;;;;;;;7.97;4.90;;;6.10;99.90;;;;;;5028255;28;20329;-68
2021/03/12 00:46:28;;;;;;;8.37;4.70;;;6.20;99.90;;;;;;5028227;28;20213;-68
2021/03/12 00:48:54;;;;;;;7.80;4.23;;;6.20;99.90;;;;;;5028557;28;20321;-67
2021/03/12 00:51:25;;;;;;;8.47;4.67;;;6.20;99.90;;;;;;5061220;28;20230;-67
2021/03/12 00:54:05;;;;;;;7.10;4.67;;;6.20;99.90;;;;;;5028748;28;20268;-67
2021/03/12 00:56:32;;;;;;;7.00;4.37;;;6.20;99.90;;;;;;5027813;28;20555;-68
2021/03/12 00:59:03;;;;;;;17.57;5.43;;;6.20;99.90;;;;;;5029803;28;20202;-67
2021/03/12 01:01:34;;;;;;;75.53;12.97;;;6.20;99.90;;;;;;5028407;28;20252;-68
2021/03/12 01:04:01;;;;;;;30.77;8.60;;;6.20;99.90;;;;;;5062511;28;20233;-68
2021/03/12 01:06:28;;;;;;;16.30;5.87;;;6.20;99.90;;;;;;5026839;28;20207;-68
2021/03/12 01:08:59;;;;;;;6.57;4.13;;;6.20;99.90;;;;;;5028948;28;20285;-67
2021/03/12 01:11:31;;;;;;;8.70;3.40;;;6.20;99.90;;;;;;5028334;28;20210;-68
2021/03/12 01:13:58;;;;;;;8.60;3.90;;;6.20;99.90;;;;;;5032348;28;20297;-68
2021/03/12 01:16:31;;;;;;;4.87;3.43;;;6.10;99.90;;;;;;5032152;28;20237;-68
2021/03/12 01:19:00;;;;;;;3.67;3.00;;;6.20;99.90;;;;;;5016801;28;20217;-68
2021/03/12 01:21:32;;;;;;;4.13;2.37;;;6.30;99.90;;;;;;5032900;28;20221;-67
2021/03/12 01:23:59;;;;;;;4.43;2.90;;;6.30;99.90;;;;;;5033556;28;20201;-68
2021/03/12 01:26:27;;;;;;;4.63;3.20;;;6.40;99.90;;;;;;5033288;28;20217;-68
2021/03/12 01:29:08;;;;;;;5.87;3.23;;;6.40;99.90;;;;;;5029109;28;20202;-68
2021/03/12 01:31:59;;;;;;;7.77;3.10;;;6.40;99.90;;;;;;5031963;28;20217;-67
2021/03/12 01:34:29;;;;;;;6.83;3.60;;;6.40;99.90;;;;;;5032200;28;20256;-67
2021/03/12 01:36:57;;;;;;;4.47;2.80;;;6.40;99.90;;;;;;5031427;28;20268;-67
2021/03/12 01:39:26;;;;;;;5.30;2.60;;;6.40;99.90;;;;;;5032183;28;20237;-67
2021/03/12 01:41:54;;;;;;;5.23;2.90;;;6.40;99.90;;;;;;5031374;28;20268;-68
2021/03/12 01:44:27;;;;;;;4.63;2.97;;;6.50;99.90;;;;;;5031279;28;20206;-68
2021/03/12 01:46:54;;;;;;;3.87;2.27;;;6.50;99.90;;;;;;5064993;28;20214;-68
2021/03/12 01:49:22;;;;;;;2.27;2.00;;;6.50;99.90;;;;;;5061347;28;20607;-68
2021/03/12 01:51:48;;;;;;;4.07;2.40;;;6.50;99.90;;;;;;5032539;28;20649;-68
2021/03/12 01:54:17;;;;;;;3.50;2.37;;;6.50;99.90;;;;;;5033124;28;20214;-68
2021/03/12 01:56:46;;;;;;;3.67;2.17;;;6.50;99.90;;;;;;5031218;28;20748;-68
2021/03/12 01:59:35;;;;;;;3.67;2.03;;;6.50;99.90;;;;;;5034865;28;20206;-67
2021/03/12 02:02:13;;;;;;;3.00;2.10;;;6.50;99.90;;;;;;5031786;28;20578;-67
2021/03/12 02:05:01;;;;;;;5.73;1.93;;;6.50;99.90;;;;;;5031123;28;20296;-68
2021/03/12 02:07:29;;;;;;;6.80;2.53;;;6.60;99.90;;;;;;5015066;28;20228;-68
2021/03/12 02:10:27;;;;;;;3.87;2.13;;;6.60;99.90;;;;;;5018900;28;20752;-67
2021/03/12 02:13:00;;;;;;;4.97;2.27;;;6.60;99.90;;;;;;5030629;28;20629;-68
2021/03/12 02:15:32;;;;;;;4.57;1.60;;;6.50;99.90;;;;;;5056126;28;20206;-67
2021/03/12 02:18:07;;;;;;;1.70;1.60;;;6.60;99.90;;;;;;5031086;28;20217;-68
2021/03/12 02:20:42;;;;;;;5.07;2.13;;;6.60;99.90;;;;;;5030717;28;20203;-67
2021/03/12 02:23:19;;;;;;;2.20;1.73;;;6.60;99.90;;;;;;5042933;28;20678;-68
2021/03/12 02:25:55;;;;;;;1.93;1.60;;;6.60;99.90;;;;;;5031569;28;20690;-68
2021/03/12 02:28:24;;;;;;;4.47;2.30;;;6.60;99.90;;;;;;5031423;28;20243;-67
2021/03/12 02:30:50;;;;;;;3.00;1.70;;;6.60;99.90;;;;;;5031159;28;20206;-68
2021/03/12 02:33:22;;;;;;;2.47;1.70;;;6.50;99.90;;;;;;5030906;28;20210;-68
2021/03/12 02:35:54;;;;;;;4.27;1.87;;;6.50;99.90;;;;;;5030527;28;20210;-68
2021/03/12 02:38:32;;;;;;;7.40;1.90;;;6.50;99.90;;;;;;5030765;28;20226;-68
2021/03/12 02:41:06;;;;;;;3.13;1.60;;;6.40;99.90;;;;;;5064542;28;20214;-68
2021/03/12 02:43:38;;;;;;;3.10;1.53;;;6.40;99.90;;;;;;5063723;28;20214;-68
2021/03/12 02:46:05;;;;;;;2.90;1.53;;;6.40;99.90;;;;;;5031117;28;20800;-68
2021/03/12 02:48:34;;;;;;;3.17;1.33;;;6.40;99.90;;;;;;5030412;28;20234;-68
2021/03/12 02:51:05;;;;;;;3.10;1.23;;;6.40;99.90;;;;;;5029683;28;20214;-68
2021/03/12 02:53:32;;;;;;;2.83;1.20;;;6.40;99.90;;;;;;5060075;28;20382;-68
2021/03/12 02:56:07;;;;;;;6.00;1.83;;;6.40;99.90;;;;;;5062555;28;20279;-68
2021/03/12 02:58:38;;;;;;;4.30;1.93;;;6.40;99.90;;;;;;5030068;28;20218;-68
2021/03/12 03:01:06;;;;;;;2.47;1.40;;;6.40;99.90;;;;;;5030789;28;20228;-68
2021/03/12 03:03:50;;;;;;;3.93;1.70;;;6.40;99.90;;;;;;5032129;28;20199;-68
2021/03/12 03:06:43;;;;;;;3.43;1.50;;;6.40;99.90;;;;;;5029512;28;20206;-68
2021/03/12 03:09:10;;;;;;;3.60;1.30;;;6.40;99.90;;;;;;5030364;28;20218;-68
2021/03/12 03:11:38;;;;;;;3.53;1.40;;;6.40;99.90;;;;;;5031036;28;20205;-68
2021/03/12 03:14:07;;;;;;;3.30;1.40;;;6.40;99.90;;;;;;5029912;28;20213;-68
2021/03/12 03:16:36;;;;;;;2.87;1.40;;;6.40;99.90;;;;;;5027926;28;20203;-68
2021/03/12 03:19:06;;;;;;;3.77;1.50;;;6.40;99.90;;;;;;5031756;28;20260;-68
2021/03/12 03:21:33;;;;;;;2.90;1.40;;;6.40;99.90;;;;;;5030145;28;20674;-68
2021/03/12 03:24:00;;;;;;;2.07;1.13;;;6.40;99.90;;;;;;5029776;28;20667;-67
2021/03/12 03:26:27;;;;;;;2.93;1.10;;;6.40;99.90;;;;;;5030052;28;20664;-68
2021/03/12 03:28:57;;;;;;;1.90;1.20;;;6.40;99.90;;;;;;5029405;28;20199;-68
2021/03/12 03:31:26;;;;;;;1.83;1.00;;;6.50;99.90;;;;;;5062976;28;20229;-68
2021/03/12 03:33:53;;;;;;;1.80;1.00;;;6.60;99.90;;;;;;5029816;28;20191;-68
2021/03/12 03:36:20;;;;;;;2.07;1.10;;;6.50;99.90;;;;;;5028560;28;20206;-68
2021/03/12 03:38:46;;;;;;;1.97;1.10;;;6.60;99.90;;;;;;5030813;28;20337;-68
2021/03/12 03:41:18;;;;;;;3.87;1.50;;;6.60;99.90;;;;;;5029333;28;20198;-68
2021/03/12 03:43:49;;;;;;;2.37;1.03;;;6.60;99.90;;;;;;5030107;28;20236;-68
2021/03/12 03:46:22;;;;;;;3.00;1.13;;;6.60;99.90;;;;;;5029684;28;20282;-68
2021/03/12 03:48:52;;;;;;;4.03;1.10;;;6.60;99.90;;;;;;5028194;28;20417;-68
2021/03/12 03:51:33;;;;;;;0.80;0.60;;;6.60;99.90;;;;;;5061471;28;20206;-68
2021/03/12 03:54:02;;;;;;;3.40;1.20;;;6.60;99.90;;;;;;5029436;28;20213;-68
2021/03/12 03:56:29;;;;;;;6.87;1.77;;;6.60;99.90;;;;;;5030840;28;20199;-68
2021/03/12 03:58:58;;;;;;;4.00;1.43;;;6.60;99.90;;;;;;5029037;28;20320;-68
2021/03/12 04:01:25;;;;;;;2.13;1.20;;;6.60;99.90;;;;;;5029492;28;20230;-68
2021/03/12 04:03:57;;;;;;;1.20;1.07;;;6.60;99.90;;;;;;5029602;28;20645;-68
2021/03/12 04:06:27;;;;;;;5.83;1.40;;;6.60;99.90;;;;;;5028723;28;20210;-67
2021/03/12 04:08:55;;;;;;;2.03;1.10;;;6.60;99.90;;;;;;5028989;28;20632;-67
2021/03/12 04:11:23;;;;;;;3.13;1.10;;;6.60;99.90;;;;;;5029025;28;20206;-68
2021/03/12 04:13:53;;;;;;;3.63;1.50;;;6.60;99.90;;;;;;5058741;28;20209;-68
2021/03/12 04:16:24;;;;;;;6.70;1.67;;;6.60;99.90;;;;;;5029104;28;20206;-67
2021/03/12 04:18:51;;;;;;;2.97;1.13;;;6.60;99.90;;;;;;5030977;28;20555;-67
2021/03/12 04:21:20;;;;;;;3.47;1.17;;;6.70;99.90;;;;;;5026274;28;20202;-67
2021/03/12 04:23:56;;;;;;;3.20;1.10;;;6.70;99.90;;;;;;5044792;28;20601;-68
2021/03/12 04:26:24;;;;;;;2.73;1.03;;;6.70;99.90;;;;;;5062095;28;20601;-68
2021/03/12 04:28:52;;;;;;;3.03;1.20;;;6.70;99.90;;;;;;5028620;28;20190;-68
2021/03/12 04:31:20;;;;;;;3.50;1.10;;;6.80;99.90;;;;;;5062052;28;20237;-68
2021/03/12 04:33:47;;;;;;;4.37;1.37;;;6.70;99.90;;;;;;5062539;28;20190;-68
2021/03/12 04:36:15;;;;;;;4.90;1.60;;;6.70;99.90;;;;;;5028713;28;20211;-68
2021/03/12 04:38:46;;;;;;;5.23;1.30;;;6.80;99.90;;;;;;5028999;28;20238;-68
2021/03/12 04:41:14;;;;;;;3.67;1.00;;;6.80;99.90;;;;;;5027536;28;20201;-68
2021/03/12 04:43:41;;;;;;;5.17;1.00;;;6.80;99.90;;;;;;5032524;28;20629;-68
2021/03/12 04:46:12;;;;;;;7.07;1.40;;;6.80;99.90;;;;;;5028898;28;20211;-68
2021/03/12 04:48:43;;;;;;;2.23;1.20;;;6.90;99.90;;;;;;5015220;28;20234;-68
2021/03/12 04:51:14;;;;;;;5.23;1.00;;;6.90;99.90;;;;;;5050606;28;20211;-68
2021/03/12 04:53:42;;;;;;;3.33;1.00;;;6.90;99.90;;;;;;5022867;28;20202;-68
2021/03/12 04:56:11;;;;;;;3.57;0.93;;;7.00;99.90;;;;;;5032535;28;20642;-68
2021/03/12 04:58:41;;;;;;;2.00;0.93;;;6.90;99.90;;;;;;5065832;28;20217;-68
2021/03/12 05:01:09;;;;;;;4.07;1.20;;;7.00;99.90;;;;;;5032629;28;20683;-68
2021/03/12 05:03:38;;;;;;;6.33;1.30;;;7.10;99.90;;;;;;5040648;28;20199;-68
2021/03/12 05:06:06;;;;;;;4.00;1.20;;;7.00;99.90;;;;;;5031803;28;20207;-68
2021/03/12 05:08:37;;;;;;;1.83;1.43;;;7.10;99.90;;;;;;5040004;28;20198;-68
2021/03/12 05:11:20;;;;;;;2.50;1.10;;;7.00;99.90;;;;;;5031327;28;20209;-68
2021/03/12 05:14:10;;;;;;;3.20;1.70;;;7.00;99.90;;;;;;5011180;28;20671;-68
2021/03/12 05:16:43;;;;;;;4.23;1.50;;;7.00;99.90;;;;;;5012055;28;20235;-68
2021/03/12 05:19:11;;;;;;;2.13;1.20;;;7.00;99.90;;;;;;4995566;28;20234;-68
2021/03/12 05:21:39;;;;;;;2.57;1.20;;;7.00;99.90;;;;;;4993606;28;20203;-68
2021/03/12 05:24:09;;;;;;;6.23;1.53;;;7.00;99.90;;;;;;5010543;28;20583;-68
2021/03/12 05:26:37;;;;;;;3.73;1.50;;;7.00;99.90;;;;;;5010717;28;20216;-68
2021/03/12 05:29:05;;;;;;;3.83;1.40;;;7.00;99.90;;;;;;5027102;28;20567;-68
2021/03/12 05:31:32;;;;;;;2.33;1.47;;;7.00;99.90;;;;;;5027455;28;20219;-68
2021/03/12 05:33:58;;;;;;;1.70;1.10;;;7.00;99.90;;;;;;5011869;28;20562;-68
2021/03/12 05:36:27;;;;;;;2.87;1.50;;;7.00;99.90;;;;;;5009431;28;20326;-69
2021/03/12 05:38:54;;;;;;;2.83;1.20;;;7.10;99.90;;;;;;5011107;28;20233;-69
2021/03/12 05:41:21;;;;;;;4.43;1.20;;;7.00;99.90;;;;;;5010733;28;20220;-68
2021/03/12 05:43:50;;;;;;;5.17;1.60;;;7.00;99.90;;;;;;5026641;28;20212;-68
2021/03/12 05:46:19;;;;;;;2.53;1.33;;;7.00;99.90;;;;;;5011199;28;20295;-68
2021/03/12 05:48:47;;;;;;;2.03;1.27;;;7.10;99.90;;;;;;5004372;28;20244;-69
2021/03/12 05:51:18;;;;;;;4.70;1.60;;;7.10;99.90;;;;;;4998275;28;20294;-68
2021/03/12 05:53:47;;;;;;;3.93;1.63;;;7.10;99.90;;;;;;5006582;28;20531;-69
2021/03/12 05:56:17;;;;;;;1.50;1.20;;;7.10;99.90;;;;;;5040828;28;20214;-68
2021/03/12 05:59:04;;;;;;;2.77;1.20;;;7.10;99.90;;;;;;5032285;28;20297;-68
2021/03/12 06:01:32;;;;;;;1.33;1.20;;;7.10;99.90;;;;;;4985091;28;20726;-68
2021/03/12 06:04:00;;;;;;;1.70;1.00;;;7.20;99.90;;;;;;4989476;28;20207;-69
2021/03/12 06:06:29;;;;;;;1.57;1.10;;;7.20;99.90;;;;;;5002648;28;20679;-69
2021/03/12 06:08:57;;;;;;;2.73;1.10;;;7.20;99.90;;;;;;5002544;28;20198;-69
2021/03/12 06:11:23;;;;;;;3.17;1.80;;;7.20;99.90;;;;;;5002532;28;20208;-68
2021/03/12 06:13:51;;;;;;;3.90;1.60;;;7.10;99.90;;;;;;5002463;28;20725;-69
2021/03/12 06:16:30;;;;;;;3.97;1.60;;;7.20;99.90;;;;;;5026203;28;20676;-68
2021/03/12 06:19:13;;;;;;;1.40;1.30;;;7.20;99.90;;;;;;5004262;28;20317;-69
2021/03/12 06:21:42;;;;;;;4.80;2.10;;;7.20;99.90;;;;;;5023817;28;20204;-68
2021/03/12 06:24:26;;;;;;;2.17;1.40;;;7.30;99.90;;;;;;5002041;28;20762;-69
2021/03/12 06:27:24;;;;;;;3.10;1.77;;;7.30;99.90;;;;;;5000819;28;20645;-68
2021/03/12 06:29:58;;;;;;;3.97;1.47;;;7.30;99.90;;;;;;5000495;28;20248;-68
2021/03/12 06:32:47;;;;;;;5.20;2.23;;;7.40;99.90;;;;;;4997760;28;20275;-69
2021/03/12 06:35:36;;;;;;;4.60;2.27;;;7.40;99.90;;;;;;5011231;28;20687;-68
2021/03/12 06:38:14;;;;;;;5.23;1.70;;;7.50;99.90;;;;;;5024318;28;20232;-69
2021/03/12 06:40:57;;;;;;;3.70;2.10;;;7.50;99.90;;;;;;4990170;28;20203;-69
2021/03/12 06:43:36;;;;;;;2.50;1.50;;;7.60;99.90;;;;;;5008980;28;20235;-68
2021/03/12 06:46:03;;;;;;;4.13;1.60;;;7.60;99.90;;;;;;5028979;28;20211;-69
2021/03/12 06:49:00;;;;;;;3.43;1.70;;;7.70;99.90;;;;;;5022830;28;20587;-69
2021/03/12 06:51:33;;;;;;;4.00;1.77;;;7.80;99.90;;;;;;5024093;28;20215;-68
2021/03/12 06:54:06;;;;;;;3.93;1.90;;;7.80;99.90;;;;;;5030170;28;20291;-68
2021/03/12 06:56:41;;;;;;;2.23;1.63;;;7.80;99.90;;;;;;5030355;28;20297;-68
2021/03/12 06:59:26;;;;;;;2.17;1.20;;;8.00;99.90;;;;;;5063396;28;20243;-68
2021/03/12 07:02:07;;;;;;;1.67;1.40;;;8.20;99.90;;;;;;5030552;28;20225;-68
2021/03/12 07:04:54;;;;;;;1.60;1.50;;;8.20;99.90;;;;;;5031147;28;20691;-69
2021/03/12 07:07:42;;;;;;;1.40;1.30;;;8.50;99.90;;;;;;5020436;28;20245;-68
2021/03/12 07:10:34;;;;;;;2.77;1.53;;;8.80;99.90;;;;;;5031198;28;20677;-69
2021/03/12 07:13:20;;;;;;;2.57;1.40;;;8.90;99.90;;;;;;5029295;28;20202;-68
2021/03/12 07:15:54;;;;;;;1.97;1.70;;;9.00;99.90;;;;;;5029779;28;20293;-68
2021/03/12 07:18:32;;;;;;;2.57;1.73;;;9.00;99.90;;;;;;5030454;28;20214;-68
2021/03/12 07:21:05;;;;;;;4.70;1.67;;;8.90;99.90;;;;;;5029197;28;20405;-69
2021/03/12 07:23:37;;;;;;;3.80;1.80;;;8.80;99.90;;;;;;5061962;28;20206;-69
2021/03/12 07:26:06;;;;;;;1.37;1.27;;;8.80;99.90;;;;;;5032127;28;20205;-69
2021/03/12 07:28:35;;;;;;;5.83;2.07;;;8.80;99.90;;;;;;5021972;28;20214;-69
2021/03/12 07:31:25;;;;;;;6.63;2.10;;;8.70;99.90;;;;;;5019292;28;20209;-68
2021/03/12 07:33:56;;;;;;;3.77;2.10;;;8.70;99.90;;;;;;5027397;28;20225;-69
2021/03/12 07:36:30;;;;;;;4.10;1.90;;;8.60;99.90;;;;;;5059499;28;20766;-68
2021/03/12 07:39:06;;;;;;;2.83;2.07;;;8.70;99.90;;;;;;5025779;28;20214;-68
2021/03/12 07:41:34;;;;;;;2.50;1.57;;;8.70;99.90;;;;;;5060034;28;20347;-68
2021/03/12 07:44:15;;;;;;;3.93;1.70;;;8.70;99.90;;;;;;5027566;28;20626;-68
2021/03/12 07:47:01;;;;;;;2.47;1.83;;;8.80;99.90;;;;;;5025565;28;20202;-69
2021/03/12 07:49:35;;;;;;;2.23;1.80;;;8.70;99.90;;;;;;5027402;28;20285;-69
2021/03/12 07:52:48;;;;;;;2.80;1.83;;;8.80;99.90;;;;;;5025851;28;20780;-68
2021/03/12 07:55:51;;;;;;;3.67;1.60;;;8.80;99.90;;;;;;5059217;28;20671;-68
2021/03/12 07:58:55;;;;;;;5.37;2.30;;;8.70;99.90;;;;;;5003234;28;20220;-69
2021/03/12 08:01:55;;;;;;;4.33;1.97;;;8.70;99.90;;;;;;5012419;28;20195;-68
2021/03/12 08:05:21;;;;;;;2.10;1.60;;;8.60;99.90;;;;;;5028348;28;20210;-69
2021/03/12 08:07:49;;;;;;;2.37;1.70;;;8.60;99.90;;;;;;5025499;28;20622;-69
2021/03/12 08:10:18;;;;;;;2.80;1.53;;;8.60;99.90;;;;;;5060069;28;20195;-69
2021/03/12 08:13:21;;;;;;;1.97;1.47;;;8.70;99.90;;;;;;5058596;28;20206;-68
2021/03/12 08:16:06;;;;;;;5.20;1.90;;;8.70;99.90;;;;;;5028314;28;20237;-69
2021/03/12 08:18:38;;;;;;;4.83;2.10;;;8.70;99.90;;;;;;5027351;28;20679;-69
2021/03/12 08:21:34;;;;;;;4.50;1.70;;;8.80;99.90;;;;;;5022476;28;20233;-69
2021/03/12 08:24:57;;;;;;;5.93;1.93;;;8.80;99.90;;;;;;5027744;28;20214;-69
2021/03/12 08:27:46;;;;;;;4.57;1.80;;;8.80;99.90;;;;;;4983706;28;20211;-69
2021/03/12 08:30:47;;;;;;;1.60;1.50;;;9.20;99.90;;;;;;4973621;28;20204;-68
2021/03/12 08:33:38;;;;;;;2.23;1.53;;;10.10;99.90;;;;;;4978716;28;20227;-69
2021/03/12 08:36:38;;;;;;;3.73;1.63;;;11.20;99.90;;;;;;4981623;28;20683;-69
2021/03/12 08:39:26;;;;;;;3.33;1.53;;;12.90;99.90;;;;;;4981804;28;20230;-69
2021/03/12 08:42:15;;;;;;;2.03;1.60;;;14.00;99.90;;;;;;4984677;28;20270;-70
2021/03/12 08:45:00;;;;;;;2.10;1.70;;;14.80;99.90;;;;;;4985787;28;20265;-69
2021/03/12 08:47:42;;;;;;;1.63;1.13;;;15.50;99.90;;;;;;4978225;28;20226;-68
2021/03/12 08:50:09;;;;;;;2.07;1.27;;;16.10;99.90;;;;;;4968223;28;20242;-69
2021/03/12 08:52:46;;;;;;;4.53;1.77;;;16.10;99.90;;;;;;4985549;28;20705;-68
2021/03/12 08:55:33;;;;;;;2.53;1.70;;;15.90;99.90;;;;;;4971244;28;20364;-69
2021/03/12 08:58:12;;;;;;;1.60;1.40;;;16.50;99.40;;;;;;4988749;28;20228;-69
2021/03/12 09:00:41;;;;;;;3.13;1.73;;;16.90;98.20;;;;;;5058176;28;20689;-70
2021/03/12 09:03:18;;;;;;;1.93;1.30;;;17.40;95.10;;;;;;5024518;28;20193;-69
2021/03/12 09:06:03;;;;;;;2.33;1.40;;;17.70;94.00;;;;;;5026124;28;20565;-71
2021/03/12 09:08:47;;;;;;;2.40;1.47;;;18.20;92.20;;;;;;5026037;28;20202;-70
2021/03/12 09:11:55;;;;;;;1.40;1.13;;;18.40;91.00;;;;;;5025926;28;20245;-71
2021/03/12 09:14:24;;;;;;;3.90;1.17;;;18.20;85.80;;;;;;5026258;28;20202;-70
2021/03/12 09:16:59;;;;;;;1.77;1.50;;;18.40;85.20;;;;;;5027413;28;20198;-70
2021/03/12 09:19:27;;;;;;;1.70;1.20;;;18.50;82.70;;;;;;5053226;28;20215;-70
2021/03/12 09:21:59;;;;;;;3.00;1.47;;;18.60;81.60;;;;;;5008667;28;20204;-70
2021/03/12 09:24:32;;;;;;;3.00;1.60;;;19.30;79.50;;;;;;5027214;28;20209;-71
2021/03/12 09:26:59;;;;;;;4.70;1.50;;;19.70;76.30;;;;;;5059032;28;20222;-71
2021/03/12 09:29:39;;;;;;;2.47;1.55;;;20.50;73.90;;;;;;5025458;28;20198;-71
2021/03/12 09:32:10;;;;;;;2.58;1.75;;;21.30;71.30;;;;;;5026350;28;20198;-71
2021/03/12 09:34:45;;;;;;;1.98;1.40;;;21.90;68.00;;;;;;5063582;28;20609;-68
2021/03/12 09:37:19;;;;;;;2.67;1.73;;;22.30;66.30;;;;;;5029894;28;20705;-69
2021/03/12 09:40:01;;;;;;;1.52;1.42;;;22.40;61.90;;;;;;5062084;28;20222;-69
2021/03/12 09:42:50;;;;;;;1.50;1.40;;;22.30;62.40;;;;;;5028556;28;20293;-71
2021/03/12 09:45:32;;;;;;;18.55;4.10;;;22.20;61.20;;;;;;5064095;28;20742;-69
2021/03/12 09:48:16;;;;;;;29.35;5.38;;;22.50;60.70;;;;;;5029882;28;20238;-69
2021/03/12 09:50:44;;;;;;;34.13;7.03;;;23.00;59.20;;;;;;5062458;28;20286;-69
2021/03/12 09:53:14;;;;;;;33.00;5.45;;;23.50;56.00;;;;;;5029806;28;20202;-70
2021/03/12 09:56:05;;;;;;;4.95;1.95;;;23.80;55.20;;;;;;5028324;28;20653;-69
2021/03/12 09:58:38;;;;;;;2.05;1.65;;;24.10;53.20;;;;;;5043666;28;20207;-69
2021/03/12 10:01:24;;;;;;;4.03;1.58;;;24.00;52.40;;;;;;5030034;28;20197;-69
2021/03/12 10:04:01;;;;;;;2.10;1.45;;;24.00;52.10;;;;;;5030092;28;20477;-69
2021/03/12 10:06:56;;;;;;;2.85;1.63;;;23.90;51.10;;;;;;5027900;28;20308;-69
2021/03/12 10:09:24;;;;;;;3.05;1.55;;;23.30;50.90;;;;;;5043085;28;20245;-69
2021/03/12 10:12:16;;;;;;;1.98;1.67;;;22.90;50.90;;;;;;5029032;28;20324;-68
2021/03/12 10:14:49;;;;;;;2.60;1.60;;;23.00;51.30;;;;;;5028856;28;20198;-69
2021/03/12 10:17:38;;;;;;;2.50;1.90;;;23.20;50.60;;;;;;5030104;28;20686;-69
2021/03/12 10:20:09;;;;;;;1.75;1.65;;;23.60;50.20;;;;;;5028626;28;20309;-69
2021/03/12 10:22:37;;;;;;;2.10;1.75;;;23.70;49.40;;;;;;5029105;28;20574;-69
2021/03/12 10:25:09;;;;;;;3.58;2.00;;;23.70;48.80;;;;;;5028866;28;20620;-69
2021/03/12 10:27:37;;;;;;;4.35;2.20;;;23.70;49.00;;;;;;5027992;28;20198;-69
2021/03/12 10:30:10;;;;;;;3.70;1.73;;;23.90;48.30;;;;;;5029202;28;20646;-69
2021/03/12 10:32:43;;;;;;;2.70;1.63;;;24.00;48.70;;;;;;5026713;28;20669;-69
2021/03/12 10:35:18;;;;;;;2.08;1.77;;;24.20;48.80;;;;;;5028418;28;20329;-69
2021/03/12 10:37:45;;;;;;;2.67;1.88;;;24.30;47.00;;;;;;5030781;28;20535;-69
2021/03/12 10:40:13;;;;;;;2.20;1.77;;;24.30;47.10;;;;;;5030670;28;20885;-69
2021/03/12 10:42:40;;;;;;;1.65;1.42;;;24.30;47.40;;;;;;5027200;28;20206;-70
2021/03/12 10:45:09;;;;;;;3.88;1.77;;;24.50;47.70;;;;;;5011411;28;20619;-70
2021/03/12 10:47:36;;;;;;;3.25;1.80;;;24.50;46.80;;;;;;5028576;28;20234;-69
2021/03/12 10:50:19;;;;;;;3.33;2.00;;;23.80;45.70;;;;;;5029749;28;20959;-68
2021/03/12 10:52:46;;;;;;;5.88;1.73;;;23.20;45.50;;;;;;5059585;28;21013;-69
2021/03/12 10:55:13;;;;;;;3.10;2.00;;;22.80;45.80;;;;;;5024705;28;20225;-69
2021/03/12 10:57:46;;;;;;;3.38;1.70;;;22.80;46.20;;;;;;5027826;28;20332;-69
2021/03/12 11:00:27;;;;;;;3.17;1.55;;;22.80;46.40;;;;;;5027338;28;20570;-70
2021/03/12 11:03:02;;;;;;;6.53;2.60;;;23.10;46.90;;;;;;5029212;28;20697;-70
2021/03/12 11:05:30;;;;;;;25.95;5.35;;;23.30;45.70;;;;;;5061260;28;20191;-69
2021/03/12 11:07:59;;;;;;;49.90;8.63;;;23.20;45.50;;;;;;5061701;28;20199;-69
2021/03/12 11:10:29;;;;;;;17.60;4.35;;;23.20;45.40;;;;;;5028343;28;20222;-69
2021/03/12 11:13:13;;;;;;;2.30;1.63;;;23.40;45.70;;;;;;5027989;28;20214;-69
2021/03/12 11:15:41;;;;;;;2.40;1.77;;;23.50;45.50;;;;;;5043034;28;20206;-70
2021/03/12 11:18:11;;;;;;;3.08;1.92;;;23.20;44.90;;;;;;5028753;28;20253;-69
2021/03/12 11:20:42;;;;;;;2.88;1.58;;;22.90;45.20;;;;;;5028702;28;20198;-70
2021/03/12 11:23:27;;;;;;;3.05;1.60;;;22.40;46.10;;;;;;5026199;28;20221;-68
2021/03/12 11:25:55;;;;;;;3.10;1.85;;;21.80;46.30;;;;;;5027912;28;20293;-69
2021/03/12 11:28:22;;;;;;;5.20;2.03;;;21.30;46.90;;;;;;5039367;28;20199;-69
2021/03/12 11:30:55;;;;;;;3.20;1.60;;;20.70;46.70;;;;;;5060858;28;20218;-69
2021/03/12 11:33:25;;;;;;;2.78;1.60;;;20.40;47.20;;;;;;5060897;28;20205;-70
2021/03/12 11:36:01;;;;;;;3.20;1.60;;;20.20;47.70;;;;;;5029446;28;20199;-70
2021/03/12 11:38:28;;;;;;;3.20;1.95;;;20.20;48.20;;;;;;5027720;28;20306;-70
2021/03/12 11:40:59;;;;;;;2.65;1.58;;;20.20;48.00;;;;;;5028635;28;20583;-69
2021/03/12 11:43:30;;;;;;;24.02;4.65;;;20.30;48.20;;;;;;5026091;28;20256;-69
2021/03/12 11:45:59;;;;;;;51.17;8.23;;;20.20;46.90;;;;;;5028169;28;20210;-70
2021/03/12 11:48:37;;;;;;;7.28;2.00;;;19.90;46.40;;;;;;5025209;28;20227;-69
2021/03/12 11:51:20;;;;;;;3.30;1.80;;;19.90;46.80;;;;;;5026846;28;20199;-69
2021/03/12 11:53:49;;;;;;;5.45;1.88;;;20.00;47.40;;;;;;5028753;28;20558;-69
2021/03/12 11:56:20;;;;;;;4.93;1.90;;;19.90;46.20;;;;;;5027668;28;20210;-70
2021/03/12 11:58:54;;;;;;;3.88;1.90;;;19.70;45.50;;;;;;5026549;28;20218;-70
2021/03/12 12:01:51;;;;;;;5.95;2.13;;;19.40;45.00;;;;;;5027112;28;20217;-70
2021/03/12 12:04:19;;;;;;;5.10;2.33;;;19.10;45.10;;;;;;5024283;28;20807;-70
2021/03/12 12:07:13;;;;;;;4.22;1.92;;;18.80;44.50;;;;;;5025172;28;20191;-70
2021/03/12 12:09:53;;;;;;;7.28;2.00;;;18.50;44.70;;;;;;4984690;28;20212;-71
2021/03/12 12:12:59;;;;;;;5.78;1.77;;;18.10;44.30;;;;;;4981794;28;20204;-71
2021/03/12 12:15:51;;;;;;;4.60;2.00;;;17.60;44.20;;;;;;4912755;29;20208;-71
2021/03/12 12:18:43;;;;;;;4.82;1.50;;;17.30;45.20;;;;;;4925433;29;20250;-71
2021/03/12 12:21:13;;;;;;;4.37;1.53;;;17.20;45.80;;;;;;4838579;29;20225;-71
2021/03/12 12:23:41;;;;;;;7.43;2.15;;;17.10;45.40;;;;;;4853809;29;20229;-71
2021/03/12 12:26:08;;;;;;;7.87;1.83;;;16.90;45.80;;;;;;4854592;29;20221;-71
2021/03/12 12:28:36;;;;;;;6.53;1.80;;;16.80;46.10;;;;;;4837662;29;20197;-71
2021/03/12 12:31:04;;;;;;;5.27;1.93;;;16.60;46.40;;;;;;4853608;29;20987;-71
2021/03/12 12:33:32;;;;;;;5.40;1.90;;;16.40;46.20;;;;;;4839276;29;20292;-71
2021/03/12 12:35:59;;;;;;;7.00;2.07;;;16.10;46.30;;;;;;4837048;29;20209;-70
2021/03/12 12:38:28;;;;;;;3.40;1.40;;;15.90;46.40;;;;;;4853787;29;20687;-71
2021/03/12 12:40:57;;;;;;;6.60;1.40;;;15.70;46.60;;;;;;4853727;29;20807;-70
2021/03/12 12:43:25;;;;;;;3.90;1.67;;;15.50;46.50;;;;;;4848809;29;20204;-71
2021/03/12 12:45:55;;;;;;;4.70;1.20;;;15.20;46.70;;;;;;4852615;29;20703;-70
2021/03/12 12:48:26;;;;;;;4.30;1.30;;;15.00;47.10;;;;;;4891828;29;20714;-71
2021/03/12 12:50:54;;;;;;;4.07;1.40;;;14.80;47.40;;;;;;4903794;29;20281;-71
2021/03/12 12:53:22;;;;;;;4.73;1.50;;;14.50;47.20;;;;;;4924008;29;20283;-71
2021/03/12 12:55:52;;;;;;;7.93;1.60;;;14.30;47.30;;;;;;4931349;29;20208;-70
2021/03/12 12:58:23;;;;;;;4.37;1.30;;;14.10;47.30;;;;;;5011966;28;20643;-70
2021/03/12 13:00:51;;;;;;;4.03;1.33;;;13.90;47.70;;;;;;5024068;28;20195;-70
2021/03/12 13:03:18;;;;;;;6.60;1.97;;;13.80;48.10;;;;;;5028316;28;20200;-70
2021/03/12 13:05:48;;;;;;;5.07;1.60;;;13.70;48.50;;;;;;5026144;28;20270;-71
2021/03/12 13:08:18;;;;;;;5.07;1.73;;;13.50;48.70;;;;;;5060406;28;20564;-71
2021/03/12 13:10:47;;;;;;;57.90;9.30;;;13.40;49.10;;;;;;5031564;28;20214;-71
2021/03/12 13:13:21;;;;;;;7.70;1.70;;;13.20;49.40;;;;;;5029292;28;20208;-71
2021/03/12 13:15:49;;;;;;;4.67;1.70;;;13.10;49.60;;;;;;5035870;28;20613;-70
2021/03/12 13:18:17;;;;;;;4.83;1.97;;;12.90;49.70;;;;;;5032271;28;20253;-70
2021/03/12 13:20:47;;;;;;;6.13;1.60;;;12.90;49.90;;;;;;5029633;28;20670;-70
2021/03/12 13:23:17;;;;;;;3.73;1.50;;;12.90;50.00;;;;;;5021584;28;20264;-69
2021/03/12 13:25:47;;;;;;;3.13;1.40;;;12.90;50.00;;;;;;5030037;28;20725;-70
2021/03/12 13:28:16;;;;;;;3.90;1.50;;;12.80;50.10;;;;;;5029112;28;20198;-69
2021/03/12 13:30:45;;;;;;;3.67;1.77;;;12.70;50.20;;;;;;5037605;28;20317;-69